Time;durP1;ratioP1;P1;durP2;ratioP2;P2;SDS_P1;SDS_P2;PMS_P1;PMS_P2;Temp;Humidity;BMP_temperature;BMP_pressure;BME280_temperature;BME280_humidity;BME280_pressure;Samples;Min_cycle;Max_cycle;Signal;HPM_P1;HPM_P2
2022/04/16 00:01:12;;;;;;;7.80;5.70;;;4.70;99.90;;;;;;4997917;28;20088;-87
2022/04/16 00:03:38;;;;;;;8.40;5.78;;;4.70;99.90;;;;;;4997554;28;20532;-87
2022/04/16 00:06:04;;;;;;;6.97;4.80;;;4.60;99.90;;;;;;5030858;28;20033;-87
2022/04/16 00:08:30;;;;;;;7.47;5.20;;;4.70;99.90;;;;;;4998197;28;20061;-88
2022/04/16 00:10:57;;;;;;;7.55;4.97;;;4.70;99.90;;;;;;4997876;28;20042;-87
2022/04/16 00:13:23;;;;;;;8.30;5.30;;;4.60;99.90;;;;;;5013795;28;20050;-87
2022/04/16 00:15:52;;;;;;;10.55;5.85;;;4.70;99.90;;;;;;5030574;28;20049;-87
2022/04/16 00:18:19;;;;;;;6.65;4.70;;;4.80;99.90;;;;;;4997562;28;20037;-87
2022/04/16 00:20:49;;;;;;;7.78;5.50;;;4.80;99.90;;;;;;4997634;28;20072;-87
2022/04/16 00:23:19;;;;;;;6.97;4.93;;;4.90;99.90;;;;;;4997360;28;20035;-87
2022/04/16 00:25:46;;;;;;;10.00;6.32;;;4.90;99.90;;;;;;4996774;28;20042;-87
2022/04/16 00:28:12;;;;;;;8.98;6.18;;;4.90;99.90;;;;;;4997017;28;20032;-87
2022/04/16 00:30:39;;;;;;;11.77;6.63;;;4.90;99.90;;;;;;5030179;28;20553;-87
2022/04/16 00:33:32;;;;;;;9.32;6.30;;;4.90;99.90;;;;;;4997677;28;20034;-87
2022/04/16 00:35:57;;;;;;;8.55;6.30;;;4.80;99.90;;;;;;4996865;28;20401;-88
2022/04/16 00:38:23;;;;;;;7.70;5.63;;;4.80;99.90;;;;;;5013846;28;20030;-88
2022/04/16 00:40:49;;;;;;;8.13;5.85;;;4.80;99.90;;;;;;5013816;28;20537;-87
2022/04/16 00:43:27;;;;;;;7.45;5.47;;;4.80;99.90;;;;;;4996833;28;20041;-87
2022/04/16 00:45:54;;;;;;;10.10;6.93;;;4.70;99.90;;;;;;4997262;28;20150;-87
2022/04/16 00:48:23;;;;;;;10.20;6.43;;;4.60;99.90;;;;;;5014985;28;20824;-87
2022/04/16 00:50:55;;;;;;;8.90;6.03;;;4.60;99.90;;;;;;4997319;28;20035;-87
2022/04/16 00:53:22;;;;;;;11.75;6.60;;;4.50;99.90;;;;;;4996969;28;20042;-87
2022/04/16 00:55:48;;;;;;;9.75;6.15;;;4.50;99.90;;;;;;5012958;28;20026;-88
2022/04/16 00:58:14;;;;;;;9.55;6.20;;;4.50;99.90;;;;;;4997125;28;20367;-88
2022/04/16 01:00:42;;;;;;;10.23;6.80;;;4.60;99.90;;;;;;4997170;28;20022;-88
2022/04/16 01:03:08;;;;;;;12.50;7.13;;;4.60;99.90;;;;;;4996699;28;20058;-87
2022/04/16 01:05:35;;;;;;;9.57;6.30;;;4.60;99.90;;;;;;4997095;28;20121;-87
2022/04/16 01:08:04;;;;;;;10.77;7.22;;;4.50;99.90;;;;;;4997063;28;20037;-87
2022/04/16 01:10:33;;;;;;;11.45;7.93;;;4.50;99.90;;;;;;4996758;28;20029;-87
2022/04/16 01:13:03;;;;;;;12.75;7.57;;;4.50;99.90;;;;;;4996904;28;20491;-87
2022/04/16 01:15:30;;;;;;;11.03;7.43;;;4.50;99.90;;;;;;4996604;28;20030;-87
2022/04/16 01:17:57;;;;;;;15.52;9.52;;;4.40;99.90;;;;;;5029568;28;20045;-87
2022/04/16 01:20:23;;;;;;;13.38;8.90;;;4.40;99.90;;;;;;5029279;28;20076;-87
2022/04/16 01:22:50;;;;;;;14.77;9.50;;;4.50;99.90;;;;;;4996145;28;20108;-86
2022/04/16 01:25:19;;;;;;;16.13;10.13;;;4.40;99.90;;;;;;4996094;28;20033;-87
2022/04/16 01:27:46;;;;;;;21.00;11.00;;;4.50;99.90;;;;;;5012132;28;20485;-88
2022/04/16 01:30:22;;;;;;;19.60;11.85;;;4.60;99.90;;;;;;5029018;28;20121;-87
2022/04/16 01:32:48;;;;;;;20.50;12.10;;;4.70;99.90;;;;;;5012712;28;20034;-88
2022/04/16 01:35:15;;;;;;;23.77;13.73;;;4.80;99.90;;;;;;4996433;28;20026;-87
2022/04/16 01:37:41;;;;;;;23.00;12.98;;;4.90;99.90;;;;;;5012897;28;20056;-87
2022/04/16 01:40:09;;;;;;;21.80;12.98;;;4.80;99.90;;;;;;4996267;28;20026;-88
2022/04/16 01:42:36;;;;;;;21.05;12.65;;;4.90;99.90;;;;;;5013823;28;20477;-87
2022/04/16 01:45:04;;;;;;;20.75;12.82;;;4.80;99.90;;;;;;5013044;28;20069;-87
2022/04/16 01:47:31;;;;;;;19.77;12.25;;;5.00;99.90;;;;;;5013898;28;20680;-88
2022/04/16 01:49:57;;;;;;;22.88;13.52;;;5.00;99.90;;;;;;5012676;28;20030;-88
2022/04/16 01:52:23;;;;;;;21.88;12.75;;;5.20;99.90;;;;;;4996085;28;20030;-87
2022/04/16 01:54:50;;;;;;;23.85;12.90;;;5.40;99.90;;;;;;4995864;28;20105;-87
2022/04/16 01:57:20;;;;;;;19.67;11.48;;;5.50;99.90;;;;;;4996163;28;20457;-88
2022/04/16 01:59:49;;;;;;;18.98;10.98;;;5.70;99.90;;;;;;5012370;28;20033;-88
2022/04/16 02:02:16;;;;;;;21.30;12.00;;;5.80;99.90;;;;;;4995990;28;20022;-87
2022/04/16 02:04:43;;;;;;;19.20;10.50;;;5.90;99.90;;;;;;5028071;28;20428;-88
2022/04/16 02:07:09;;;;;;;18.27;9.90;;;6.00;99.90;;;;;;5011766;28;20030;-88
2022/04/16 02:09:35;;;;;;;17.85;10.63;;;6.10;99.90;;;;;;5011575;28;20396;-85
2022/04/16 02:12:01;;;;;;;22.30;10.98;;;6.20;99.90;;;;;;4995508;28;20021;-87
2022/04/16 02:14:27;;;;;;;16.67;10.73;;;6.30;99.90;;;;;;5012314;28;20037;-87
2022/04/16 02:16:53;;;;;;;15.68;9.65;;;6.40;99.90;;;;;;5012120;28;20038;-88
2022/04/16 02:19:19;;;;;;;15.60;9.95;;;6.40;99.90;;;;;;5012143;28;20371;-88
2022/04/16 02:21:46;;;;;;;15.10;10.10;;;6.40;99.90;;;;;;4995290;28;20080;-87
2022/04/16 02:24:13;;;;;;;18.15;10.15;;;6.40;99.90;;;;;;4995155;28;20033;-88
2022/04/16 02:26:40;;;;;;;20.40;11.45;;;6.40;99.90;;;;;;5011369;28;20092;-87
2022/04/16 02:29:08;;;;;;;20.42;11.23;;;6.40;99.90;;;;;;4995104;28;20073;-87
2022/04/16 02:31:34;;;;;;;22.13;11.35;;;6.40;99.90;;;;;;5011812;28;20030;-88
2022/04/16 02:34:00;;;;;;;19.50;11.23;;;6.40;99.90;;;;;;4995832;28;20473;-88
2022/04/16 02:36:26;;;;;;;18.70;11.13;;;6.40;99.90;;;;;;4995403;28;20096;-88
2022/04/16 02:38:54;;;;;;;17.42;10.07;;;6.40;99.90;;;;;;4995529;28;20087;-88
2022/04/16 02:41:23;;;;;;;14.95;9.70;;;6.50;99.90;;;;;;5011723;28;20073;-88
2022/04/16 02:43:49;;;;;;;17.55;10.13;;;6.50;99.90;;;;;;4995601;28;20038;-87
2022/04/16 02:49:00;;;;;;;18.05;10.65;;;6.50;99.90;;;;;;5028275;28;20045;-87
2022/04/16 02:51:26;;;;;;;16.10;10.07;;;6.60;99.90;;;;;;5012747;28;20561;-88
2022/04/16 02:53:52;;;;;;;20.50;11.00;;;6.60;99.90;;;;;;5010847;28;20029;-88
2022/04/16 02:56:18;;;;;;;16.10;10.52;;;6.50;99.90;;;;;;5012619;28;20033;-87
2022/04/16 02:58:43;;;;;;;18.40;11.82;;;6.50;99.90;;;;;;5012893;28;20038;-88
2022/04/16 03:01:09;;;;;;;16.98;10.77;;;6.50;99.90;;;;;;5032459;28;20026;-88
2022/04/16 03:03:35;;;;;;;18.83;10.50;;;6.40;99.90;;;;;;4999128;28;20474;-88
2022/04/16 03:06:01;;;;;;;16.48;10.48;;;6.40;99.90;;;;;;5016487;28;20037;-88
2022/04/16 03:08:26;;;;;;;15.73;10.07;;;6.40;99.90;;;;;;4998893;28;20040;-88
2022/04/16 03:10:52;;;;;;;18.30;10.85;;;6.30;99.90;;;;;;4998863;28;20041;-88
2022/04/16 03:13:19;;;;;;;18.60;11.52;;;6.30;99.90;;;;;;5016367;28;20029;-88
2022/04/16 03:18:29;;;;;;;23.45;11.25;;;6.50;99.90;;;;;;5015111;28;20470;-88
2022/04/16 03:20:59;;;;;;;17.42;10.18;;;6.60;99.90;;;;;;4999126;28;20036;-87
2022/04/16 03:23:25;;;;;;;21.33;11.38;;;6.70;99.90;;;;;;5014865;28;20030;-88
2022/04/16 03:25:53;;;;;;;18.23;10.65;;;6.80;99.90;;;;;;5015056;28;20589;-87
2022/04/16 03:28:19;;;;;;;18.70;10.77;;;6.80;99.90;;;;;;5015586;28;20030;-87
2022/04/16 03:30:45;;;;;;;19.35;11.45;;;6.90;99.90;;;;;;5015353;28;20041;-87
2022/04/16 03:33:12;;;;;;;16.80;10.40;;;6.90;99.90;;;;;;5016195;28;20034;-87
2022/04/16 03:35:38;;;;;;;18.23;11.20;;;6.90;99.90;;;;;;5014501;28;20442;-87
2022/04/16 03:38:04;;;;;;;20.95;11.63;;;6.90;99.90;;;;;;4982452;28;20030;-87
2022/04/16 03:40:30;;;;;;;14.77;9.80;;;6.90;99.90;;;;;;4998631;28;20424;-88
2022/04/16 03:43:01;;;;;;;18.25;10.30;;;6.90;99.90;;;;;;4997848;28;20037;-88
2022/04/16 03:45:32;;;;;;;21.77;10.33;;;6.90;99.90;;;;;;5014819;28;20030;-87
2022/04/16 03:47:59;;;;;;;20.40;10.90;;;6.90;99.90;;;;;;5014883;28;20038;-88
2022/04/16 03:50:27;;;;;;;17.13;10.07;;;7.00;99.90;;;;;;5031596;28;20034;-88
2022/04/16 03:52:56;;;;;;;18.25;10.05;;;7.00;99.90;;;;;;4998221;28;20034;-87
2022/04/16 04:00:53;;;;;;;17.02;10.38;;;7.00;99.90;;;;;;5015885;28;20544;-88
2022/04/16 04:03:25;;;;;;;18.88;10.70;;;7.00;99.90;;;;;;4998510;28;20068;-87
2022/04/16 04:05:53;;;;;;;16.85;10.40;;;6.90;99.90;;;;;;5014463;28;20034;-87
2022/04/16 04:08:21;;;;;;;16.67;9.27;;;7.00;99.90;;;;;;5014565;28;20030;-87
2022/04/16 04:10:47;;;;;;;15.95;10.70;;;7.00;99.90;;;;;;4996760;28;20026;-87
2022/04/16 04:13:14;;;;;;;14.95;9.05;;;7.00;99.90;;;;;;4998099;28;20375;-87
2022/04/16 04:15:40;;;;;;;13.98;8.68;;;7.00;99.90;;;;;;4997609;28;20038;-87
2022/04/16 04:18:06;;;;;;;16.50;9.50;;;7.00;99.90;;;;;;5030793;28;20080;-88
2022/04/16 04:20:34;;;;;;;17.02;10.20;;;7.00;99.90;;;;;;5012341;28;20065;-87
2022/04/16 04:22:59;;;;;;;16.10;10.15;;;7.00;99.90;;;;;;4996991;28;20386;-87
2022/04/16 04:25:25;;;;;;;18.15;9.70;;;7.00;99.90;;;;;;4997092;28;20034;-87
2022/04/16 04:28:10;;;;;;;16.88;9.82;;;7.10;99.90;;;;;;5013240;28;20042;-88
2022/04/16 04:30:35;;;;;;;17.92;10.75;;;7.00;99.90;;;;;;5013712;28;20267;-87
2022/04/16 04:33:01;;;;;;;18.67;9.68;;;7.00;99.90;;;;;;4998230;28;20064;-88
2022/04/16 04:36:06;;;;;;;13.95;9.70;;;7.10;99.90;;;;;;5011211;28;20030;-90
2022/04/16 04:38:32;;;;;;;14.15;9.95;;;7.10;99.90;;;;;;5031320;28;20040;-91
2022/04/16 04:40:58;;;;;;;16.90;9.25;;;7.10;99.90;;;;;;4995662;28;20481;-91
2022/04/16 04:43:24;;;;;;;15.30;9.55;;;7.10;99.90;;;;;;5013873;28;20121;-91
2022/04/16 04:45:50;;;;;;;15.68;10.05;;;7.10;99.90;;;;;;4997047;28;20042;-91
2022/04/16 04:48:16;;;;;;;17.05;10.00;;;7.20;99.90;;;;;;4997717;28;20100;-91
2022/04/16 04:50:42;;;;;;;18.77;10.65;;;7.20;99.90;;;;;;4995110;28;20028;-91
2022/04/16 04:53:07;;;;;;;15.90;9.95;;;7.20;99.90;;;;;;4998390;28;20029;-90
2022/04/16 04:55:33;;;;;;;17.10;10.18;;;7.20;99.90;;;;;;5015481;28;20026;-91
2022/04/16 04:57:59;;;;;;;14.57;9.57;;;7.20;99.90;;;;;;5030652;28;20101;-91
2022/04/16 05:00:24;;;;;;;19.60;9.82;;;7.20;99.90;;;;;;4997766;28;20034;-91
2022/04/16 05:02:50;;;;;;;18.05;10.35;;;7.20;99.90;;;;;;4997821;28;20054;-90
2022/04/16 05:05:17;;;;;;;14.70;8.45;;;7.20;99.90;;;;;;5014216;28;20481;-91
2022/04/16 05:07:42;;;;;;;18.35;9.88;;;7.20;99.90;;;;;;4997814;28;20493;-91
2022/04/16 05:10:08;;;;;;;16.73;10.02;;;7.20;99.90;;;;;;4997746;28;20040;-91
2022/04/16 05:12:34;;;;;;;15.68;9.60;;;7.20;99.90;;;;;;5030457;28;20129;-90
2022/04/16 05:15:01;;;;;;;14.50;8.60;;;7.40;99.90;;;;;;5029955;28;20062;-91
2022/04/16 05:17:27;;;;;;;13.88;8.73;;;7.40;99.90;;;;;;4997613;28;20030;-91
2022/04/16 05:19:52;;;;;;;14.75;10.13;;;7.40;99.90;;;;;;4997424;28;20499;-90
2022/04/16 05:22:18;;;;;;;14.27;9.40;;;7.40;99.90;;;;;;5013503;28;20026;-88
2022/04/16 05:24:45;;;;;;;18.30;10.30;;;7.40;99.90;;;;;;4997625;28;20029;-88
2022/04/16 05:27:11;;;;;;;16.42;8.80;;;7.40;99.90;;;;;;5013569;28;20485;-88
2022/04/16 05:29:56;;;;;;;14.95;9.40;;;7.40;99.90;;;;;;4998071;28;20079;-89
2022/04/16 05:32:23;;;;;;;13.95;9.20;;;7.50;99.90;;;;;;4998027;28;20042;-88
2022/04/16 05:34:49;;;;;;;18.38;9.23;;;7.40;99.90;;;;;;4997475;28;20484;-89
2022/04/16 05:37:14;;;;;;;17.42;9.88;;;7.40;99.90;;;;;;4997795;28;20030;-88
2022/04/16 05:39:40;;;;;;;15.45;9.48;;;7.40;99.90;;;;;;5014836;28;20377;-92
2022/04/16 05:42:06;;;;;;;15.95;9.65;;;7.40;99.90;;;;;;5013471;28;20056;-89
2022/04/16 05:44:33;;;;;;;19.88;10.75;;;7.40;99.90;;;;;;4997621;28;20022;-91
2022/04/16 05:46:58;;;;;;;16.60;10.38;;;7.30;99.90;;;;;;4997561;28;20040;-89
2022/04/16 05:49:24;;;;;;;14.25;9.75;;;7.40;99.90;;;;;;4997974;28;20120;-89
2022/04/16 05:51:50;;;;;;;16.45;10.15;;;7.40;99.90;;;;;;4997409;28;20034;-90
2022/04/16 05:54:15;;;;;;;16.88;9.68;;;7.50;99.90;;;;;;4980936;28;20033;-89
2022/04/16 05:56:44;;;;;;;15.48;9.85;;;7.50;99.90;;;;;;4993401;28;20041;-90
2022/04/16 05:59:10;;;;;;;15.15;9.88;;;7.40;99.90;;;;;;5013775;28;20485;-89
2022/04/16 06:01:35;;;;;;;20.55;9.93;;;7.40;99.90;;;;;;5030517;28;20091;-89
2022/04/16 06:04:01;;;;;;;14.93;9.35;;;7.40;99.90;;;;;;4997501;28;20025;-90
2022/04/16 06:06:27;;;;;;;16.58;9.93;;;7.40;99.90;;;;;;5013618;28;20202;-89
2022/04/16 06:08:52;;;;;;;12.68;8.30;;;7.50;99.90;;;;;;4996659;28;20795;-90
2022/04/16 06:11:20;;;;;;;14.85;9.73;;;7.50;99.90;;;;;;4996954;28;20517;-91
2022/04/16 06:13:45;;;;;;;13.23;8.43;;;7.50;99.90;;;;;;4996612;28;20381;-90
2022/04/16 06:16:11;;;;;;;14.82;9.25;;;7.60;99.90;;;;;;5013060;28;20030;-90
2022/04/16 06:18:37;;;;;;;13.55;8.80;;;7.60;99.90;;;;;;5010677;28;20029;-90
2022/04/16 06:21:03;;;;;;;12.60;8.63;;;7.70;99.90;;;;;;5029678;28;20030;-89
2022/04/16 06:23:47;;;;;;;13.93;9.15;;;7.70;99.90;;;;;;4980002;28;20080;-90
2022/04/16 06:26:13;;;;;;;12.23;7.70;;;7.80;99.90;;;;;;4996160;28;20401;-90
2022/04/16 06:28:38;;;;;;;124.03;13.40;;;7.80;99.90;;;;;;4996728;28;20041;-89
2022/04/16 06:31:19;;;;;;;11.63;7.85;;;7.90;99.90;;;;;;4996836;28;20772;-90
2022/04/16 06:33:45;;;;;;;13.43;7.88;;;7.90;99.90;;;;;;4995613;28;20077;-90
2022/04/16 06:36:11;;;;;;;13.23;7.93;;;7.80;99.90;;;;;;4995727;28;20042;-90
2022/04/16 06:38:37;;;;;;;12.38;7.30;;;7.90;99.90;;;;;;5012693;28;20022;-90
2022/04/16 06:41:02;;;;;;;15.02;7.85;;;8.10;99.90;;;;;;5013350;28;20536;-90
2022/04/16 06:43:28;;;;;;;11.65;7.05;;;8.00;99.90;;;;;;5012901;28;20450;-90
2022/04/16 06:46:00;;;;;;;8.55;6.13;;;8.10;99.90;;;;;;5012037;28;20485;-89
2022/04/16 06:48:26;;;;;;;9.82;6.88;;;8.20;99.90;;;;;;5013423;28;20034;-89
2022/04/16 06:50:52;;;;;;;9.05;6.07;;;8.30;99.90;;;;;;4995862;28;20034;-90
2022/04/16 06:53:17;;;;;;;8.75;5.88;;;8.40;99.90;;;;;;5013789;28;20363;-89
2022/04/16 06:55:43;;;;;;;13.52;8.95;;;8.50;99.90;;;;;;5014395;28;20073;-90
2022/04/16 06:58:46;;;;;;;12.35;8.18;;;8.40;99.90;;;;;;4996259;28;20029;-91
2022/04/16 07:01:12;;;;;;;22.70;13.63;;;8.40;99.90;;;;;;5009741;28;20036;-90
2022/04/16 07:03:38;;;;;;;11.82;8.05;;;8.60;99.90;;;;;;4979906;28;20394;-89
2022/04/16 07:06:03;;;;;;;10.32;7.25;;;8.70;99.90;;;;;;5014044;28;20037;-89
2022/04/16 07:08:29;;;;;;;11.30;7.05;;;8.80;99.90;;;;;;4996312;28;20022;-90
2022/04/16 07:10:55;;;;;;;10.38;6.57;;;8.90;99.90;;;;;;5029060;28;20030;-90
2022/04/16 07:13:21;;;;;;;10.52;6.95;;;8.90;99.90;;;;;;5025462;28;20037;-90
2022/04/16 07:15:47;;;;;;;12.93;7.53;;;9.10;99.90;;;;;;4996273;28;20033;-89
2022/04/16 07:18:12;;;;;;;9.82;6.50;;;9.30;99.90;;;;;;4996372;28;20469;-89
2022/04/16 07:20:40;;;;;;;8.93;5.90;;;9.50;99.90;;;;;;4996605;28;20034;-89
2022/04/16 07:23:24;;;;;;;12.15;6.75;;;9.40;99.90;;;;;;4996143;28;20106;-89
2022/04/16 07:25:50;;;;;;;9.73;7.03;;;9.50;99.90;;;;;;4996901;28;20132;-89
2022/04/16 07:28:21;;;;;;;9.32;6.43;;;9.40;99.90;;;;;;5012245;28;20169;-90
2022/04/16 07:30:53;;;;;;;9.23;6.47;;;9.40;99.90;;;;;;5012730;28;20041;-89
2022/04/16 07:33:19;;;;;;;9.65;6.78;;;9.40;99.90;;;;;;4995460;28;20272;-89
2022/04/16 07:35:45;;;;;;;10.27;6.65;;;9.40;99.90;;;;;;4995994;28;20029;-89
2022/04/16 07:38:11;;;;;;;11.50;6.93;;;9.50;99.90;;;;;;4996116;28;20030;-89
2022/04/16 07:40:38;;;;;;;9.32;6.75;;;9.60;99.90;;;;;;4996401;28;20036;-89
2022/04/16 07:43:04;;;;;;;13.20;7.07;;;9.80;99.90;;;;;;4996079;28;20037;-90
2022/04/16 07:45:29;;;;;;;9.88;6.95;;;10.20;99.90;;;;;;5015063;28;20061;-90
2022/04/16 07:47:55;;;;;;;11.15;7.13;;;10.20;99.90;;;;;;4999442;28;20083;-89
2022/04/16 07:50:21;;;;;;;10.43;7.00;;;10.20;99.90;;;;;;4999742;28;20025;-90
2022/04/16 07:52:47;;;;;;;11.38;7.13;;;10.10;99.90;;;;;;5031990;28;20026;-90
2022/04/16 07:55:14;;;;;;;10.10;7.03;;;10.10;99.90;;;;;;4999466;28;20026;-91
2022/04/16 07:57:40;;;;;;;9.95;6.75;;;10.30;99.90;;;;;;5015966;28;20037;-91
2022/04/16 08:00:07;;;;;;;9.68;6.60;;;10.20;99.90;;;;;;4999676;28;20033;-90
2022/04/16 08:02:37;;;;;;;9.63;6.47;;;10.50;99.90;;;;;;4997890;28;20379;-91
2022/04/16 08:05:03;;;;;;;9.60;5.90;;;10.70;99.90;;;;;;4999144;28;20034;-91
2022/04/16 08:07:30;;;;;;;10.45;6.13;;;10.70;99.90;;;;;;5015211;28;20036;-90
2022/04/16 08:09:55;;;;;;;18.23;11.52;;;10.80;99.90;;;;;;5000285;28;20061;-91
2022/04/16 08:12:21;;;;;;;7.50;5.30;;;10.80;99.90;;;;;;4998361;28;20135;-91
2022/04/16 08:14:47;;;;;;;9.02;6.22;;;10.90;99.90;;;;;;4999133;28;20049;-91
2022/04/16 08:17:13;;;;;;;9.30;6.45;;;11.00;99.90;;;;;;5015067;28;20251;-91
2022/04/16 08:19:39;;;;;;;8.85;5.95;;;11.00;99.90;;;;;;5015682;28;20026;-91
2022/04/16 08:22:07;;;;;;;7.13;5.13;;;11.00;99.90;;;;;;4998339;28;20029;-91
2022/04/16 08:27:03;;;;;;;9.15;5.70;;;11.50;99.90;;;;;;5031135;28;20034;-91
2022/04/16 08:29:29;;;;;;;11.40;5.40;;;11.60;99.90;;;;;;5014821;28;20030;-91
2022/04/16 08:31:54;;;;;;;8.25;5.78;;;11.80;99.90;;;;;;5016430;28;20084;-91
2022/04/16 08:34:20;;;;;;;9.80;5.15;;;11.80;99.90;;;;;;4998161;28;20048;-92
2022/04/16 08:36:46;;;;;;;9.77;5.68;;;12.00;99.90;;;;;;4998844;28;20041;-91
2022/04/16 08:39:11;;;;;;;7.63;5.00;;;11.70;99.90;;;;;;4999115;28;20058;-91
2022/04/16 08:41:38;;;;;;;10.50;5.10;;;11.70;99.90;;;;;;4998768;28;20026;-90
2022/04/16 08:44:05;;;;;;;16.08;5.38;;;11.90;99.90;;;;;;5015779;28;20037;-91
2022/04/16 08:46:32;;;;;;;10.95;6.95;;;11.90;99.90;;;;;;4998882;28;20489;-90
2022/04/16 08:48:59;;;;;;;8.85;5.97;;;11.90;99.90;;;;;;4998715;28;20038;-91
2022/04/16 08:51:29;;;;;;;10.38;5.45;;;11.80;99.90;;;;;;4998515;28;20040;-91
2022/04/16 08:53:55;;;;;;;7.88;5.05;;;11.20;99.90;;;;;;5031430;28;20030;-90
2022/04/16 08:56:20;;;;;;;5.72;4.32;;;11.20;99.90;;;;;;5030493;28;20036;-91
2022/04/16 08:58:46;;;;;;;9.50;5.25;;;11.20;99.90;;;;;;4998153;28;20053;-91
2022/04/16 09:01:12;;;;;;;13.43;7.57;;;11.00;99.90;;;;;;5014419;28;20034;-91
2022/04/16 09:03:39;;;;;;;10.40;5.80;;;10.80;99.90;;;;;;4998486;28;20393;-91
2022/04/16 09:06:06;;;;;;;9.48;6.15;;;12.20;99.90;;;;;;4998215;28;20038;-91
2022/04/16 09:08:34;;;;;;;4.25;3.03;;;13.70;99.90;;;;;;5014752;28;20066;-91
2022/04/16 09:11:07;;;;;;;6.47;4.13;;;14.10;99.90;;;;;;4998532;28;20327;-90
2022/04/16 09:13:33;;;;;;;6.10;3.78;;;13.50;99.90;;;;;;5014630;28;20038;-91
2022/04/16 09:16:04;;;;;;;8.68;3.95;;;13.80;99.90;;;;;;4994701;28;20127;-91
2022/04/16 09:18:29;;;;;;;8.00;5.28;;;14.40;99.90;;;;;;4998328;28;20033;-91
2022/04/16 09:20:55;;;;;;;6.47;4.60;;;14.00;99.90;;;;;;5015072;28;20022;-91
2022/04/16 09:23:22;;;;;;;6.22;3.70;;;13.50;99.90;;;;;;4997895;28;20493;-91
2022/04/16 09:25:51;;;;;;;6.30;3.95;;;13.90;99.90;;;;;;4998352;28;20044;-91
2022/04/16 09:28:18;;;;;;;6.07;3.63;;;14.20;99.90;;;;;;4998284;28;20053;-91
2022/04/16 09:31:04;;;;;;;14.88;5.90;;;13.80;99.90;;;;;;4997838;28;20030;-91
2022/04/16 09:33:39;;;;;;;8.95;4.38;;;13.50;99.90;;;;;;4998026;28;20080;-90
2022/04/16 09:36:05;;;;;;;9.30;5.03;;;12.80;99.90;;;;;;4998847;28;20030;-90
2022/04/16 09:38:42;;;;;;;8.63;4.22;;;12.10;99.90;;;;;;4998448;28;20022;-91
2022/04/16 09:41:08;;;;;;;6.93;4.03;;;11.90;99.90;;;;;;4997983;28;20022;-91
2022/04/16 09:43:36;;;;;;;7.72;5.43;;;11.80;99.90;;;;;;4996576;28;20104;-90
2022/04/16 09:46:12;;;;;;;10.25;4.57;;;11.70;99.90;;;;;;4997017;28;20018;-90
2022/04/16 09:48:39;;;;;;;6.80;3.92;;;11.60;99.90;;;;;;4997664;28;20041;-91
2022/04/16 09:51:05;;;;;;;13.68;4.97;;;12.10;99.90;;;;;;4997702;28;20026;-91
2022/04/16 09:53:31;;;;;;;6.43;4.53;;;12.60;99.90;;;;;;4997861;28;20474;-91
2022/04/16 09:56:01;;;;;;;10.30;5.32;;;12.50;99.90;;;;;;4998254;28;20034;-91
2022/04/16 09:58:36;;;;;;;11.63;5.22;;;12.30;99.90;;;;;;4997940;28;20034;-91
2022/04/16 10:01:21;;;;;;;8.98;5.20;;;12.40;99.90;;;;;;4998342;28;20133;-90
2022/04/16 10:03:49;;;;;;;6.47;4.20;;;12.50;99.90;;;;;;4997171;28;20030;-90
2022/04/16 10:06:16;;;;;;;7.05;4.53;;;13.40;99.90;;;;;;4997502;28;20037;-90
2022/04/16 10:08:42;;;;;;;6.35;4.50;;;14.00;99.90;;;;;;4996292;28;20028;-90
2022/04/16 10:11:19;;;;;;;6.78;4.60;;;13.70;99.90;;;;;;4997478;28;20477;-88
2022/04/16 10:13:56;;;;;;;11.57;5.00;;;13.30;99.90;;;;;;4995732;28;20030;-91
2022/04/16 10:16:39;;;;;;;5.07;3.20;;;13.50;99.90;;;;;;5015312;28;20050;-90
2022/04/16 10:19:17;;;;;;;5.10;2.83;;;14.00;99.90;;;;;;4997682;28;20026;-91
2022/04/16 10:21:43;;;;;;;4.68;2.90;;;14.30;99.90;;;;;;4991107;28;20037;-90
2022/04/16 10:24:09;;;;;;;5.20;2.80;;;15.00;99.90;;;;;;4997802;28;20026;-91
2022/04/16 10:26:39;;;;;;;3.97;2.28;;;15.30;99.90;;;;;;4998084;28;20039;-90
2022/04/16 10:29:05;;;;;;;4.82;3.00;;;15.40;99.90;;;;;;4998001;28;20030;-91
2022/04/16 10:31:36;;;;;;;6.65;4.25;;;15.50;98.90;;;;;;4998203;28;20033;-91
2022/04/16 10:34:05;;;;;;;4.70;2.42;;;15.40;98.00;;;;;;4998818;28;20029;-91
2022/04/16 10:36:37;;;;;;;11.65;3.40;;;15.50;98.40;;;;;;5015447;28;20185;-91
2022/04/16 10:39:32;;;;;;;;;;;15.20;97.30;;;;;;5014588;28;20033;-92
2022/04/16 10:42:00;;;;;;;3.88;2.90;;;15.10;95.60;;;;;;4994759;28;20059;-90
2022/04/16 10:44:27;;;;;;;4.30;3.22;;;15.00;95.20;;;;;;4994115;28;20072;-90
2022/04/16 10:46:54;;;;;;;4.28;3.33;;;14.90;95.60;;;;;;5013909;28;20091;-90
2022/04/16 10:49:23;;;;;;;5.68;3.50;;;15.00;95.70;;;;;;4995299;28;20481;-90
2022/04/16 10:51:52;;;;;;;10.18;3.75;;;15.60;96.90;;;;;;4996240;28;20500;-91
2022/04/16 10:54:34;;;;;;;3.33;3.03;;;15.80;95.10;;;;;;5012735;28;20026;-92
2022/04/16 10:57:00;;;;;;;;;;;16.00;93.60;;;;;;4997778;28;20385;-91
2022/04/16 10:59:40;;;;;;;4.15;3.13;;;15.70;93.90;;;;;;5014798;28;19912;-91
2022/04/16 11:02:28;;;;;;;4.63;3.28;;;15.80;95.70;;;;;;4997585;28;20034;-92
2022/04/16 11:05:05;;;;;;;7.35;3.75;;;15.90;92.20;;;;;;4997322;28;20057;-91
2022/04/16 11:07:36;;;;;;;5.72;3.97;;;15.60;91.40;;;;;;4997383;28;20026;-90
2022/04/16 11:10:08;;;;;;;4.80;3.55;;;15.80;92.30;;;;;;5014531;28;20388;-91
2022/04/16 11:12:36;;;;;;;5.93;4.00;;;15.70;91.10;;;;;;4990257;28;20018;-91
2022/04/16 11:15:01;;;;;;;4.15;3.35;;;15.70;91.60;;;;;;5013770;28;20113;-91
2022/04/16 11:17:27;;;;;;;5.93;3.70;;;15.70;92.60;;;;;;4996203;28;20129;-91
2022/04/16 11:20:00;;;;;;;6.65;4.63;;;16.10;91.50;;;;;;5030820;28;20480;-90
2022/04/16 11:22:26;;;;;;;5.00;3.50;;;16.00;91.10;;;;;;5016639;28;20037;-90
2022/04/16 11:24:52;;;;;;;6.57;4.47;;;16.10;91.50;;;;;;5000499;28;20090;-91
2022/04/16 11:35:59;;;;;;;6.43;4.53;;;15.40;90.10;;;;;;5033330;28;20435;-91
2022/04/16 11:38:28;;;;;;;5.90;4.70;;;15.50;90.50;;;;;;5017378;28;20076;-91
2022/04/16 11:40:55;;;;;;;6.35;4.20;;;15.50;89.30;;;;;;5015751;28;20022;-91
2022/04/16 11:43:24;;;;;;;5.68;3.88;;;15.80;83.40;;;;;;5016088;28;20034;-91
2022/04/16 11:45:51;;;;;;;5.22;4.13;;;15.70;77.60;;;;;;4999659;28;20401;-90
2022/04/16 11:48:17;;;;;;;6.03;4.30;;;15.70;80.00;;;;;;4999664;28;20033;-90
2022/04/16 11:50:44;;;;;;;6.28;4.38;;;15.70;82.50;;;;;;5015667;28;20029;-91
2022/04/16 11:53:13;;;;;;;7.50;5.40;;;16.10;85.50;;;;;;4999610;28;20053;-90
2022/04/16 11:55:50;;;;;;;8.40;5.63;;;15.60;85.00;;;;;;4999578;28;20124;-91
2022/04/16 11:58:16;;;;;;;6.78;4.78;;;15.80;81.70;;;;;;4998142;28;20022;-91
2022/04/16 12:00:50;;;;;;;5.70;3.97;;;15.80;80.10;;;;;;4983700;28;20038;-90
2022/04/16 12:03:20;;;;;;;7.28;4.63;;;16.00;77.00;;;;;;5014311;28;20054;-91
2022/04/16 12:05:50;;;;;;;5.55;4.35;;;16.20;79.50;;;;;;4999408;28;20509;-91
2022/04/16 12:08:20;;;;;;;6.00;4.15;;;16.20;80.30;;;;;;5032751;28;20085;-92
2022/04/16 12:10:46;;;;;;;6.43;5.07;;;16.30;79.60;;;;;;4999184;28;20385;-91
2022/04/16 12:13:13;;;;;;;5.38;4.32;;;15.90;77.90;;;;;;5015687;28;20030;-91
2022/04/16 12:15:44;;;;;;;11.02;4.95;;;16.20;77.00;;;;;;5016134;28;20121;-90
2022/04/16 12:18:19;;;;;;;4.93;3.75;;;16.10;78.40;;;;;;4999471;28;20026;-91
2022/04/16 12:20:47;;;;;;;5.03;3.83;;;16.00;74.30;;;;;;4999601;28;20057;-91
2022/04/16 12:23:23;;;;;;;5.88;3.70;;;15.80;69.30;;;;;;4999425;28;20059;-91
2022/04/16 12:25:50;;;;;;;7.10;3.67;;;15.30;71.70;;;;;;4998468;28;20038;-91
2022/04/16 12:28:16;;;;;;;6.45;4.22;;;15.50;74.00;;;;;;4999100;28;20041;-91
2022/04/16 12:30:50;;;;;;;8.25;3.63;;;15.10;72.30;;;;;;5016322;28;20045;-92
2022/04/16 12:33:16;;;;;;;5.72;3.28;;;14.80;71.00;;;;;;5015218;28;20120;-91
2022/04/16 12:35:47;;;;;;;6.00;4.20;;;14.60;72.10;;;;;;4999052;28;20049;-91
2022/04/16 12:38:17;;;;;;;7.40;4.47;;;14.60;71.40;;;;;;5000260;28;20038;-90
2022/04/16 12:40:44;;;;;;;4.17;3.47;;;14.60;71.50;;;;;;5033370;28;20301;-91
2022/04/16 12:43:09;;;;;;;5.13;4.43;;;14.50;72.40;;;;;;5000539;28;20034;-91
2022/04/16 12:45:35;;;;;;;8.30;3.78;;;14.70;73.60;;;;;;5000955;28;20492;-90
2022/04/16 12:48:01;;;;;;;6.60;3.35;;;14.70;69.90;;;;;;5000452;28;20101;-90
2022/04/16 12:50:29;;;;;;;6.82;4.53;;;14.70;68.70;;;;;;5017636;28;20572;-91
2022/04/16 12:52:55;;;;;;;5.95;3.10;;;14.90;67.00;;;;;;4998545;28;20057;-91
2022/04/16 12:55:21;;;;;;;8.05;2.88;;;15.10;68.60;;;;;;4997126;28;20061;-91
2022/04/16 12:57:47;;;;;;;8.63;3.50;;;15.00;69.00;;;;;;5016560;28;20502;-91
2022/04/16 13:00:15;;;;;;;5.70;3.50;;;14.90;67.00;;;;;;4998155;28;20030;-91
2022/04/16 13:02:44;;;;;;;5.15;3.40;;;15.00;67.20;;;;;;5014831;28;20033;-91
2022/04/16 13:05:32;;;;;;;4.40;3.17;;;15.10;72.40;;;;;;4998527;28;20117;-91
2022/04/16 13:08:00;;;;;;;8.15;3.70;;;15.60;70.20;;;;;;4982734;28;20068;-91
2022/04/16 13:10:26;;;;;;;5.43;3.00;;;15.80;66.90;;;;;;5028785;28;20100;-91
2022/04/16 13:12:53;;;;;;;5.10;2.92;;;16.20;66.10;;;;;;5031486;28;20106;-91